createdAt,value
2023-03-22T00:01:13.372Z,70.85
2023-03-22T00:03:47.167Z,70.84
2023-03-22T00:06:21.350Z,70.68
2023-03-22T00:08:55.983Z,70.79
2023-03-22T00:11:29.520Z,70.99
2023-03-22T00:14:03.661Z,71.25
2023-03-22T00:16:37.362Z,71.33
2023-03-22T00:19:10.934Z,71.11
2023-03-22T00:21:45.357Z,71.03
2023-03-22T00:24:18.901Z,70.95
2023-03-22T00:26:52.959Z,71.06
2023-03-22T00:29:26.549Z,71.01
2023-03-22T00:32:00.524Z,70.94
2023-03-22T00:34:36.559Z,70.99
2023-03-22T00:37:10.229Z,71.06
2023-03-22T00:39:44.596Z,71.06
2023-03-22T00:42:18.270Z,71.07
2023-03-22T00:44:55.427Z,71.12
2023-03-22T00:47:28.863Z,71.14
2023-03-22T00:50:02.595Z,71.21
2023-03-22T00:52:36.649Z,71.45
2023-03-22T00:55:11.445Z,71.40
2023-03-22T00:57:45.276Z,71.51
2023-03-22T01:00:20.283Z,71.56
2023-03-22T01:03:00.209Z,71.46
2023-03-22T01:05:35.325Z,71.51
2023-03-22T01:08:10.320Z,71.56
2023-03-22T01:10:45.127Z,71.77
2023-03-22T01:13:19.287Z,71.80
2023-03-22T01:15:55.145Z,71.81
2023-03-22T01:18:28.882Z,71.90
2023-03-22T01:21:02.407Z,72.12
2023-03-22T01:23:36.243Z,72.07
2023-03-22T01:26:10.321Z,72.00
2023-03-22T01:28:43.831Z,72.07
2023-03-22T01:31:17.504Z,72.08
2023-03-22T01:33:51.756Z,72.06
2023-03-22T01:36:26.175Z,71.97
2023-03-22T01:39:00.033Z,72.12
2023-03-22T01:41:35.562Z,72.23
2023-03-22T01:44:15.803Z,72.42
2023-03-22T01:46:50.693Z,72.36
2023-03-22T01:49:29.143Z,72.27
2023-03-22T01:52:05.283Z,72.27
2023-03-22T01:55:18.653Z,72.20
2023-03-22T01:57:55.779Z,72.27
2023-03-22T02:00:39.679Z,72.30
2023-03-22T02:03:27.604Z,72.20
2023-03-22T02:06:01.976Z,72.28
2023-03-22T02:08:35.925Z,72.18
2023-03-22T02:11:18.927Z,72.16
2023-03-22T02:14:05.619Z,72.04
2023-03-22T02:17:11.705Z,72.15
2023-03-22T02:20:15.938Z,72.20
2023-03-22T02:23:24.380Z,72.14
2023-03-22T02:26:34.404Z,71.98
2023-03-22T02:29:14.170Z,72.03
2023-03-22T02:32:12.650Z,72.16
2023-03-22T02:34:54.678Z,72.19
2023-03-22T02:38:00.522Z,72.35
2023-03-22T02:40:40.743Z,72.63
2023-03-22T02:43:23.854Z,72.49
2023-03-22T02:46:05.074Z,72.47
2023-03-22T02:48:44.126Z,72.48
2023-03-22T02:51:23.791Z,72.46
2023-03-22T02:54:01.484Z,72.43
2023-03-22T02:56:41.535Z,72.42
2023-03-22T02:59:18.033Z,72.31
2023-03-22T03:01:54.148Z,72.35
2023-03-22T03:04:30.387Z,72.24
2023-03-22T03:07:09.789Z,72.14
2023-03-22T03:09:46.265Z,72.17
2023-03-22T03:12:23.481Z,72.18
2023-03-22T03:14:57.852Z,72.32
2023-03-22T03:17:42.663Z,72.43
2023-03-22T03:20:30.572Z,72.34
2023-03-22T03:23:17.770Z,72.28
2023-03-22T03:26:02.201Z,72.32
2023-03-22T03:28:40.864Z,72.22
2023-03-22T03:31:30.436Z,72.44
2023-03-22T03:34:13.117Z,72.65
2023-03-22T03:36:54.552Z,72.69
2023-03-22T03:39:32.425Z,72.88
2023-03-22T03:42:08.618Z,72.76
2023-03-22T03:44:43.634Z,72.75
2023-03-22T03:47:18.658Z,72.70
2023-03-22T03:49:52.587Z,72.68
2023-03-22T03:52:26.942Z,72.74
2023-03-22T03:55:00.705Z,72.92
2023-03-22T03:57:38.316Z,72.89
2023-03-22T04:00:15.228Z,73.21
2023-03-22T04:03:12.427Z,73.34
2023-03-22T04:06:09.211Z,73.57
2023-03-22T04:08:45.809Z,73.78
2023-03-22T04:11:21.853Z,73.88
2023-03-22T04:13:57.187Z,74.04
2023-03-22T04:16:31.311Z,74.28
2023-03-22T04:19:05.012Z,74.45
2023-03-22T04:21:39.002Z,74.45
2023-03-22T04:24:14.335Z,74.54
2023-03-22T04:26:49.412Z,74.70
2023-03-22T04:29:48.565Z,74.72
2023-03-22T04:33:01.620Z,74.87
2023-03-22T04:35:48.837Z,74.96
2023-03-22T04:38:23.226Z,74.97
2023-03-22T04:40:58.860Z,74.89
2023-03-22T04:43:47.250Z,75.06
2023-03-22T04:46:22.988Z,75.04
2023-03-22T04:49:01.481Z,75.19
2023-03-22T04:51:35.304Z,75.19
2023-03-22T04:54:22.990Z,75.34
2023-03-22T04:56:57.153Z,75.47
2023-03-22T04:59:31.938Z,75.39
2023-03-22T05:02:06.183Z,75.56
2023-03-22T05:04:46.383Z,75.51
2023-03-22T05:07:40.980Z,75.31
2023-03-22T05:10:16.069Z,75.42
2023-03-22T05:12:49.788Z,75.49
2023-03-22T05:15:27.651Z,75.65
2023-03-22T05:18:01.478Z,75.63
2023-03-22T05:20:35.355Z,75.74
2023-03-22T05:23:19.873Z,75.72
2023-03-22T05:25:58.572Z,75.45
2023-03-22T05:28:33.276Z,75.26
2023-03-22T05:31:18.046Z,75.05
2023-03-22T05:34:01.760Z,75.09
2023-03-22T05:36:37.464Z,75.67
2023-03-22T05:39:34.208Z,75.73
2023-03-22T05:42:07.684Z,75.95
2023-03-22T05:44:42.631Z,77.01
2023-03-22T05:47:18.963Z,76.37
2023-03-22T05:50:05.694Z,74.18
2023-03-22T05:52:40.139Z,72.71
2023-03-22T05:55:30.625Z,71.91
2023-03-22T05:58:05.549Z,70.26
2023-03-22T06:00:41.939Z,70.00
2023-03-22T06:03:36.348Z,69.70
2023-03-22T06:06:17.427Z,68.67
2023-03-22T06:09:16.027Z,67.48
2023-03-22T06:11:51.500Z,66.62
2023-03-22T06:14:25.674Z,65.51
2023-03-22T06:17:15.825Z,64.64
2023-03-22T06:19:51.442Z,65.32
2023-03-22T06:22:26.934Z,64.92
2023-03-22T06:25:01.581Z,64.09
2023-03-22T06:27:42.688Z,64.56
2023-03-22T06:30:17.764Z,64.46
2023-03-22T06:33:13.168Z,62.75
2023-03-22T06:35:49.845Z,61.58
2023-03-22T06:38:28.804Z,61.60
2023-03-22T06:41:02.304Z,61.74
2023-03-22T06:43:36.275Z,62.31
2023-03-22T06:46:21.605Z,62.94
2023-03-22T06:49:03.590Z,63.35
2023-03-22T06:51:37.136Z,63.77
2023-03-22T06:54:13.017Z,63.17
2023-03-22T06:56:46.927Z,63.18
2023-03-22T06:59:21.393Z,62.58
2023-03-22T07:01:55.720Z,61.84
2023-03-22T07:04:29.642Z,61.75
2023-03-22T07:07:03.728Z,61.96
2023-03-22T07:09:38.083Z,61.93
2023-03-22T07:12:12.306Z,62.38
2023-03-22T07:14:46.116Z,62.89
2023-03-22T07:17:38.382Z,63.45
2023-03-22T07:20:13.499Z,63.70
2023-03-22T07:22:48.554Z,63.53
2023-03-22T07:25:23.014Z,63.74
2023-03-22T07:28:03.058Z,63.69
2023-03-22T07:30:38.390Z,63.62
2023-03-22T07:33:13.668Z,63.78
2023-03-22T07:35:47.978Z,64.36
2023-03-22T07:38:21.766Z,64.06
2023-03-22T07:40:57.313Z,63.35
2023-03-22T07:43:47.313Z,61.74
2023-03-22T07:46:30.118Z,60.98
2023-03-22T07:49:23.845Z,61.87
2023-03-22T07:52:14.366Z,61.35
2023-03-22T07:54:48.191Z,58.36
2023-03-22T07:57:22.359Z,57.18
2023-03-22T08:00:02.000Z,57.32
2023-03-22T08:02:49.594Z,58.84
2023-03-22T08:05:45.451Z,58.25
2023-03-22T08:08:21.042Z,57.74
2023-03-22T08:10:54.623Z,55.92
2023-03-22T08:13:28.485Z,55.34
2023-03-22T08:16:02.616Z,55.01
2023-03-22T08:18:36.830Z,55.72
2023-03-22T08:21:12.225Z,55.68
2023-03-22T08:23:48.692Z,56.14
2023-03-22T08:26:42.951Z,56.20
2023-03-22T08:29:24.093Z,57.23
2023-03-22T08:32:02.698Z,57.79
2023-03-22T08:34:40.429Z,58.09
2023-03-22T08:37:14.421Z,58.19
2023-03-22T08:39:49.380Z,59.04
2023-03-22T08:42:28.878Z,59.31
2023-03-22T08:45:02.749Z,59.38
2023-03-22T08:47:36.845Z,58.64
2023-03-22T08:50:13.016Z,58.44
2023-03-22T08:52:54.067Z,58.57
2023-03-22T08:55:37.148Z,59.34
2023-03-22T08:58:21.402Z,59.63
2023-03-22T09:01:17.097Z,59.90
2023-03-22T09:04:03.767Z,60.06
2023-03-22T09:06:37.838Z,60.40
2023-03-22T09:09:12.217Z,60.42
2023-03-22T09:11:46.577Z,59.75
2023-03-22T09:14:20.089Z,59.77
2023-03-22T09:16:53.917Z,60.17
2023-03-22T09:19:27.840Z,60.42
2023-03-22T09:22:01.717Z,60.47
2023-03-22T09:24:42.235Z,60.66
2023-03-22T09:27:16.255Z,60.47
2023-03-22T09:29:51.257Z,60.63
2023-03-22T09:32:25.879Z,60.52
2023-03-22T09:35:04.837Z,60.36
2023-03-22T09:37:45.903Z,60.58
2023-03-22T09:40:20.452Z,60.65
2023-03-22T09:42:57.812Z,60.62
2023-03-22T09:45:39.039Z,60.89
2023-03-22T09:48:19.272Z,60.81
2023-03-22T09:50:55.429Z,61.26
2023-03-22T09:53:31.235Z,60.95
2023-03-22T09:56:11.705Z,60.80
2023-03-22T09:58:52.622Z,61.29
2023-03-22T10:01:38.668Z,61.14
2023-03-22T10:04:42.525Z,60.40
2023-03-22T10:07:27.538Z,60.05
2023-03-22T10:10:18.666Z,59.56
2023-03-22T10:13:00.391Z,59.77
2023-03-22T10:15:39.307Z,60.00
2023-03-22T10:18:20.307Z,60.07
2023-03-22T10:21:00.865Z,60.30
2023-03-22T10:23:40.869Z,60.36
2023-03-22T10:26:23.598Z,60.30
2023-03-22T10:29:04.094Z,60.33
2023-03-22T10:31:38.182Z,60.44
2023-03-22T10:34:19.120Z,60.38
2023-03-22T10:36:54.638Z,60.06
2023-03-22T10:39:35.747Z,59.96
2023-03-22T10:42:13.979Z,60.17
2023-03-22T10:44:52.502Z,60.38
2023-03-22T10:47:33.702Z,60.29
2023-03-22T10:50:11.933Z,60.01
2023-03-22T10:52:52.660Z,59.83
2023-03-22T10:55:27.892Z,59.52
2023-03-22T10:58:12.825Z,59.44
2023-03-22T11:00:49.822Z,59.12
2023-03-22T11:03:38.359Z,59.09
2023-03-22T11:06:15.783Z,58.67
2023-03-22T11:08:51.394Z,58.66
2023-03-22T11:11:28.299Z,59.17
2023-03-22T11:14:08.276Z,59.01
2023-03-22T11:16:49.795Z,59.29
2023-03-22T11:19:28.325Z,59.27
2023-03-22T11:22:04.180Z,59.18
2023-03-22T11:24:38.273Z,59.02
2023-03-22T11:27:22.872Z,59.04
2023-03-22T11:29:59.780Z,58.92
2023-03-22T11:32:37.269Z,59.25
2023-03-22T11:35:16.965Z,59.45
2023-03-22T11:37:53.197Z,59.33
2023-03-22T11:40:28.508Z,59.19
2023-03-22T11:43:13.353Z,58.84
2023-03-22T11:45:50.044Z,58.28
2023-03-22T11:48:27.506Z,58.26
2023-03-22T11:51:07.527Z,58.59
2023-03-22T11:53:44.681Z,58.51
2023-03-22T11:56:23.954Z,57.86
2023-03-22T11:59:07.156Z,57.85
2023-03-22T12:01:46.161Z,57.87
2023-03-22T12:04:24.708Z,58.28
2023-03-22T12:06:58.517Z,58.06
2023-03-22T12:09:41.689Z,57.31
2023-03-22T12:12:20.059Z,57.24
2023-03-22T12:14:59.180Z,57.42
2023-03-22T12:17:39.192Z,56.82
2023-03-22T12:20:23.795Z,56.23
2023-03-22T12:22:58.663Z,56.67
2023-03-22T12:25:36.039Z,56.60
2023-03-22T12:28:15.798Z,56.97
2023-03-22T12:30:51.598Z,56.88
2023-03-22T12:33:30.211Z,56.42
2023-03-22T12:36:06.663Z,55.42
2023-03-22T12:38:48.725Z,55.20
2023-03-22T12:41:28.626Z,55.28
2023-03-22T12:44:05.523Z,55.22
2023-03-22T12:46:51.063Z,55.16
2023-03-22T12:49:35.589Z,54.66
2023-03-22T12:52:17.771Z,55.25
2023-03-22T12:54:53.998Z,55.06
2023-03-22T12:57:27.929Z,54.80
2023-03-22T13:00:11.044Z,55.16
2023-03-22T13:02:55.322Z,54.83
2023-03-22T13:05:31.827Z,54.84
2023-03-22T13:08:06.213Z,54.82
2023-03-22T13:10:59.221Z,54.98
2023-03-22T13:13:48.068Z,55.28
2023-03-22T13:16:50.986Z,55.07
2023-03-22T13:19:38.595Z,55.72
2023-03-22T13:22:30.944Z,53.86
2023-03-22T13:25:15.206Z,53.17
2023-03-22T13:27:57.079Z,53.10
2023-03-22T13:30:35.091Z,51.27
2023-03-22T13:33:22.230Z,50.47
2023-03-22T13:35:59.261Z,51.06
2023-03-22T13:38:35.415Z,51.96
2023-03-22T13:41:10.893Z,52.47
2023-03-22T13:43:51.466Z,52.68
2023-03-22T13:46:48.345Z,53.29
2023-03-22T13:49:45.049Z,53.70
2023-03-22T13:52:30.178Z,54.07
2023-03-22T13:55:04.486Z,54.53
2023-03-22T13:57:51.617Z,54.92
2023-03-22T14:00:39.419Z,54.88
2023-03-22T14:03:23.567Z,55.05
2023-03-22T14:06:07.727Z,54.89
2023-03-22T14:08:42.378Z,54.82
2023-03-22T14:11:25.841Z,54.85
2023-03-22T14:14:07.081Z,54.94
2023-03-22T14:16:43.825Z,54.97
2023-03-22T14:19:23.714Z,55.12
